METAR stanice u blizini

 

LYBE - Beograd / Surčin, Srbija
Ažurirano: 22/08/2019 23:00
Vedro
Vedro
 Pravac vetra ZJZ
Vetar: ZJZ 6 km/h
Temperatura: 24°C
Tačka rose: 19°C
Vlažnost: 74%
Pritisak: 1021 hPa
Pregled: Vedro
Vidljivost: greater than 10 km
2019/08/22 21:00 LYBE 222100Z 25003KT 220V280 CAVOK 24/19 Q1021 NOSIG
LYBT - Beograd / Batajnica, Srbija
Ažurirano: 22/08/2019 23:00
Vedro
Vedro
 Pravac vetra JZ
Vetar: JZ 4 km/h
Temperatura: 22°C
Tačka rose: 19°C
Vlažnost: 83%
Pritisak: 1021 hPa
Pregled: Vedro
Vidljivost: greater than 10 km
2019/08/22 21:00 LYBT 222100Z 23002KT CAVOK 22/19 Q1021 NOSIG
LYVR - Vršac, Srbija
Ažurirano: 22/08/2019 23:00
Vedro
Vedro
 Pravac vetra SI
Vetar: SI 6 km/h
Temperatura: 22°C
Tačka rose: 18°C
Vlažnost: 78%
Pritisak: 1021 hPa
Pregled: Vedro
Vidljivost: greater than 10 km
2019/08/22 21:00 LYVR 222100Z 05003KT 020V080 CAVOK 22/18 Q1021 NOSIG
 
LYKV - Lađevci, Srbija
Ažurirano: 22/08/2019 23:00
Vedro
Vedro
 Pravac vetra SZ
Vetar: SZ 4 km/h
Temperatura: 22°C
Tačka rose: 18°C
Vlažnost: 78%
Pritisak: 1022 hPa
Pregled: Vedro
Vidljivost: greater than 10 km
2019/08/22 21:00 LYKV 222100Z 32002KT CAVOK 22/18 Q1022 NOSIG
LYNI - Niš, Srbija
Ažurirano: 22/08/2019 23:00
Vedro
Vedro
 Pravac vetra varies
Vetar: varies 19 km/h
Temperatura: 26°C
Tačka rose: 16°C
Vlažnost: 54%
Pritisak: 1021 hPa
Pregled: Vedro
Vidljivost: greater than 10 km
2019/08/22 21:00 LYNI 222100Z VRB10KT CAVOK 26/16 Q1021 NOSIG
BKPR - Priština, Srbija
Ažurirano: 22/08/2019 23:00
Vedro
Vedro
 Pravac vetra S
Vetar: S 15 km/h
Temperatura: 23°C
Tačka rose: 14°C
Vlažnost: 57%
Pritisak: 1023 hPa
Pregled: Vedro
Vidljivost: greater than 10 km
2019/08/22 21:00 BKPR 222100Z 36008KT CAVOK 23/14 Q1023 NOSIG
 
LHPP - Pecs / Pogany, Hungary
Ažurirano: 22/08/2019 18:45
NOT Current
Vedro
Vedro
 Pravac vetra ISI
Vetar: ISI 13 km/h
Temperatura: 26°C
Tačka rose: 18°C
Vlažnost: 61%
Pritisak: 1022 hPa
Pregled: Vedro
Vidljivost: greater than 10 km
2019/08/22 16:45 LHPP 221645Z 06007KT CAVOK 26/18 Q1022
LHUD - Szeged, Hungary
Ažurirano: 04/07/2019 01:45
NOT Current
Vedro
Vedro
 Pravac vetra S
Vetar: S 7 km/h
Temperatura: 18°C
Tačka rose: 13°C
Vlažnost: 73%
Pritisak: 1019 hPa
Pregled: Vedro
Vidljivost: greater than 10 km
2019/07/03 23:45 LHUD 032345Z 35004KT CAVOK 18/13 Q1019
LRTR - Timisoara, Romania
Ažurirano: 22/08/2019 23:00
Vedro
Vedro
 Pravac vetra I
Vetar: I 7 km/h
Temperatura: 23°C
Tačka rose: 19°C
Vlažnost: 78%
Pritisak: 1021 hPa
Pregled: Vedro
Vidljivost: greater than 10 km
2019/08/22 21:00 LRTR 222100Z 09004KT CAVOK 23/19 Q1021
 
LRCV - Craiova, Romania
Ažurirano: 22/08/2019 23:00
Few Clouds
Few Clouds
 Pravac vetra I
Vetar: I 15 km/h
Temperatura: 24°C
Tačka rose: 14°C
Vlažnost: 54%
Pritisak: 1021 hPa
Oblaci: Few Clouds
Vidljivost: 10 km
Cloud details: Few Clouds 2743 m
2019/08/22 21:00 LRCV 222100Z AUTO 08008KT 9999 FEW090/// 24/14 Q1021
LBSF - Sofia, Bulgaria
Ažurirano: 22/08/2019 23:00
Vedro
Vedro
 Pravac vetra JJI
Vetar: JJI 7 km/h
Temperatura: 22°C
Tačka rose: 12°C
Vlažnost: 53%
Pritisak: 1023 hPa
Pregled: Vedro
Vidljivost: greater than 10 km
2019/08/22 21:00 LBSF 222100Z 16004KT 100V170 CAVOK 22/12 Q1023 NOSIG
LWSK - Skoplje, Makedonija
Ažurirano: 22/08/2019 23:00
Vedro
Vedro
 Pravac vetra varies
Vetar: varies 4 km/h
Temperatura: 26°C
Tačka rose: 12°C
Vlažnost: 42%
Pritisak: 1020 hPa
Pregled: Vedro
Vidljivost: greater than 10 km
2019/08/22 21:00 LWSK 222100Z VRB02KT CAVOK 26/12 Q1020 NOSIG
 
LYPG - Podgorica, Crna Gora
Ažurirano: 22/08/2019 23:00
Vedro
Vedro
 Pravac vetra S
Vetar: S 13 km/h
Temperatura: 28°C
Tačka rose: 12°C
Vlažnost: 37%
Pritisak: 1017 hPa
Pregled: Vedro
Vidljivost: greater than 10 km
2019/08/22 21:00 LYPG 222100Z 36007KT CAVOK 28/12 Q1017 NOSIG
LQSA - Sarajevo, Bosna i Hercegovina
Ažurirano: 22/08/2019 23:00
Vedro
Vedro
 Pravac vetra SZ
Vetar: SZ 7 km/h
Temperatura: 22°C
Tačka rose: 18°C
Vlažnost: 78%
Pritisak: 1024 hPa
Pregled: Vedro
Vidljivost: greater than 10 km
2019/08/22 21:00 LQSA 222100Z 32004KT CAVOK 22/18 Q1024
LDOS - Osijek, Hrvatksa
Ažurirano: 22/08/2019 23:00
Vedro
Vedro
 Pravac vetra S
Vetar: S 9 km/h
Temperatura: 22°C
Tačka rose: 19°C
Vlažnost: 83%
Pritisak: 1022 hPa
Pregled: Vedro
Vidljivost: greater than 10 km
2019/08/22 21:00 LDOS 222100Z 36005KT CAVOK 22/19 Q1022